Kyokuho Maru No.15 — JI3715 — position and weather

sailwx.info

Track history (hours):
 
Tides and Currents Weather Stations Pressure Air Temp Water Temp Dewpoint Dewpoint Depression Visibility Wind Speed Wind Dir Waves Ship Positions

Kyokuho Maru No.15

Last reported at 2017-Oct-17 04:37 UTC. Time now 2017-Oct-23 00:52 UTC.
Position N 34°37' E 134°57'.

Length 63 m; draft 3.5 m.

Type: Tanker. MMSI: 431301714.

Date/timePositionNaut miles runAvg speedWind from/ knotsBaromVisibWave heightAir tempDewpointWater temp
2017-Oct-17 04:37N 34°37' E 134°57'4 8.9
2017-Oct-17 04:11N 34°37' E 135°02'2 8.5
2017-Oct-17 04:00N 34°36' E 135°03'510.8
2017-Oct-17 03:30N 34°37' E 135°10'611.9
2017-Oct-17 03:00N 34°38' E 135°17'1 2.6
2017-Oct-17 02:30N 34°40' E 135°18'0 0.0
2017-Oct-17 02:00N 34°40' E 135°18'0 0.0
2017-Oct-17 01:30N 34°40' E 135°18'0 0.0
2017-Oct-17 01:00N 34°39' E 135°18'0 0.0
2017-Oct-17 00:30N 34°39' E 135°18'0 0.0
2017-Oct-17 00:00N 34°39' E 135°18'0 0.0
2017-Oct-16 23:30N 34°39' E 135°18'0 0.0
2017-Oct-16 23:00N 34°39' E 135°18'0 0.0
2017-Oct-16 22:30N 34°39' E 135°18'0 0.0
2017-Oct-16 22:00N 34°39' E 135°18'1 3.0
2017-Oct-16 21:30N 34°38' E 135°18'612.3
2017-Oct-16 21:00N 34°33' E 135°23'3 5.4
2017-Oct-16 20:30N 34°31' E 135°24'0 0.0
2017-Oct-16 05:09N 34°31' E 135°24'0 0.3
2017-Oct-16 04:56N 34°31' E 135°24'4 9.9
2017-Oct-16 04:30N 34°35' E 135°23'611.8
2017-Oct-16 04:00N 34°40' E 135°25'0 0.1
2017-Oct-16 03:30N 34°40' E 135°25'0 0.0
2017-Oct-16 03:00N 34°40' E 135°25'0 0.0
2017-Oct-16 02:30N 34°40' E 135°25'0 0.0
2017-Oct-16 02:00N 34°40' E 135°25'0 0.0
2017-Oct-16 01:30N 34°40' E 135°25'0 0.0
2017-Oct-16 01:00N 34°40' E 135°25'1 2.9
2017-Oct-16 00:30N 34°39' E 135°26'3 2.3
2017-Oct-15 23:24N 34°38' E 135°29'1 1.5
2017-Oct-15 22:59N 34°38' E 135°28'2 4.5
2017-Oct-15 22:30N 34°39' E 135°26'4 8.7
2017-Oct-15 22:00N 34°35' E 135°23'5 0.1
2017-Oct-14 05:30N 34°31' E 135°24'3 5.2
2017-Oct-14 05:00N 34°33' E 135°22'4 8.1
2017-Oct-14 04:31N 34°36' E 135°19'611.1
2017-Oct-14 04:00N 34°39' E 135°25'1 1.4
2017-Oct-14 03:30N 34°40' E 135°25'0 0.0
2017-Oct-14 03:01N 34°40' E 135°25'0 0.0
2017-Oct-14 02:30N 34°40' E 135°25'0 0.4
2017-Oct-14 02:00N 34°40' E 135°25'0 0.2
2017-Oct-14 01:30N 34°40' E 135°25'0 0.0
2017-Oct-14 01:00N 34°40' E 135°25'0 0.0
2017-Oct-14 00:30N 34°40' E 135°25'0 0.0
2017-Oct-14 00:00N 34°40' E 135°25'0 0.0
2017-Oct-13 23:30N 34°40' E 135°25'0 0.0
2017-Oct-13 23:00N 34°40' E 135°25'2 4.4
2017-Oct-13 22:30N 34°40' E 135°23'0 0.1
2017-Oct-13 21:46N 34°40' E 135°22'0 0.1
2017-Oct-13 21:22N 34°40' E 135°22'0 0.0
2017-Oct-13 20:22N 34°40' E 135°22'1 2.8
2017-Oct-13 20:00N 34°39' E 135°22'611.8
2017-Oct-13 19:30N 34°35' E 135°17'611.9
2017-Oct-13 19:00N 34°30' E 135°13'611.7
2017-Oct-13 18:30N 34°25' E 135°09'712.2
2017-Oct-13 17:57N 34°19' E 135°05'512.4
2017-Oct-13 17:30N 34°14' E 135°03'712.3
2017-Oct-13 16:59N 34°07' E 135°03'205 9.5
2017-Oct-12 19:22N 34°47' E 139°07'512.2
2017-Oct-12 18:59N 34°51' E 139°10'1311.3
2017-Oct-12 17:50N 34°59' E 139°23'410.4
2017-Oct-12 17:27N 35°00' E 139°27'510.9
2017-Oct-12 17:00N 35°03' E 139°32'611.5
2017-Oct-12 16:30N 35°06' E 139°38'611.2
2017-Oct-12 16:00N 35°09' E 139°44'612.2
2017-Oct-12 15:30N 35°15' E 139°46'612.8
2017-Oct-12 15:00N 35°20' E 139°42'611.7
2017-Oct-12 14:30N 35°26' E 139°45'16 2.2
2017-Oct-12 07:32N 35°32' E 140°03'  
Track history (hours):
 
Tides and Currents Weather Stations Pressure Air Temp Water Temp Dewpoint Dewpoint Depression Visibility Wind Speed Wind Dir Waves Ship Positions

Kyokuho Maru No.15

Last reported at 2017-Oct-17 04:37 UTC. Time now 2017-Oct-23 00:52 UTC.
Position N 34°37' E 134°57'.

Length 63 m; draft 3.5 m.

Type: Tanker. MMSI: 431301714.

Date/timePositionNaut miles runAvg speedWind from/ knotsBaromVisibWave heightAir tempDewpointWater temp
2017-Oct-17 04:37N 34°37' E 134°57'4 8.9
2017-Oct-17 04:11N 34°37' E 135°02'2 8.5
2017-Oct-17 04:00N 34°36' E 135°03'510.8
2017-Oct-17 03:30N 34°37' E 135°10'611.9
2017-Oct-17 03:00N 34°38' E 135°17'1 2.6
2017-Oct-17 02:30N 34°40' E 135°18'0 0.0
2017-Oct-17 02:00N 34°40' E 135°18'0 0.0
2017-Oct-17 01:30N 34°40' E 135°18'0 0.0
2017-Oct-17 01:00N 34°39' E 135°18'0 0.0
2017-Oct-17 00:30N 34°39' E 135°18'0 0.0
2017-Oct-17 00:00N 34°39' E 135°18'0 0.0
2017-Oct-16 23:30N 34°39' E 135°18'0 0.0
2017-Oct-16 23:00N 34°39' E 135°18'0 0.0
2017-Oct-16 22:30N 34°39' E 135°18'0 0.0
2017-Oct-16 22:00N 34°39' E 135°18'1 3.0
2017-Oct-16 21:30N 34°38' E 135°18'612.3
2017-Oct-16 21:00N 34°33' E 135°23'3 5.4
2017-Oct-16 20:30N 34°31' E 135°24'0 0.0
2017-Oct-16 05:09N 34°31' E 135°24'0 0.3
2017-Oct-16 04:56N 34°31' E 135°24'4 9.9
2017-Oct-16 04:30N 34°35' E 135°23'611.8
2017-Oct-16 04:00N 34°40' E 135°25'0 0.1
2017-Oct-16 03:30N 34°40' E 135°25'0 0.0
2017-Oct-16 03:00N 34°40' E 135°25'0 0.0
2017-Oct-16 02:30N 34°40' E 135°25'0 0.0
2017-Oct-16 02:00N 34°40' E 135°25'0 0.0
2017-Oct-16 01:30N 34°40' E 135°25'0 0.0
2017-Oct-16 01:00N 34°40' E 135°25'1 2.9
2017-Oct-16 00:30N 34°39' E 135°26'3 2.3
2017-Oct-15 23:24N 34°38' E 135°29'1 1.5
2017-Oct-15 22:59N 34°38' E 135°28'2 4.5
2017-Oct-15 22:30N 34°39' E 135°26'4 8.7
2017-Oct-15 22:00N 34°35' E 135°23'5 0.1
2017-Oct-14 05:30N 34°31' E 135°24'3 5.2
2017-Oct-14 05:00N 34°33' E 135°22'4 8.1
2017-Oct-14 04:31N 34°36' E 135°19'611.1
2017-Oct-14 04:00N 34°39' E 135°25'1 1.4
2017-Oct-14 03:30N 34°40' E 135°25'0 0.0
2017-Oct-14 03:01N 34°40' E 135°25'0 0.0
2017-Oct-14 02:30N 34°40' E 135°25'0 0.4
2017-Oct-14 02:00N 34°40' E 135°25'0 0.2
2017-Oct-14 01:30N 34°40' E 135°25'0 0.0
2017-Oct-14 01:00N 34°40' E 135°25'0 0.0
2017-Oct-14 00:30N 34°40' E 135°25'0 0.0
2017-Oct-14 00:00N 34°40' E 135°25'0 0.0
2017-Oct-13 23:30N 34°40' E 135°25'0 0.0
2017-Oct-13 23:00N 34°40' E 135°25'2 4.4
2017-Oct-13 22:30N 34°40' E 135°23'0 0.1
2017-Oct-13 21:46N 34°40' E 135°22'0 0.1
2017-Oct-13 21:22N 34°40' E 135°22'0 0.0
2017-Oct-13 20:22N 34°40' E 135°22'1 2.8
2017-Oct-13 20:00N 34°39' E 135°22'611.8
2017-Oct-13 19:30N 34°35' E 135°17'611.9
2017-Oct-13 19:00N 34°30' E 135°13'611.7
2017-Oct-13 18:30N 34°25' E 135°09'712.2
2017-Oct-13 17:57N 34°19' E 135°05'512.4
2017-Oct-13 17:30N 34°14' E 135°03'712.3
2017-Oct-13 16:59N 34°07' E 135°03'205 9.5
2017-Oct-12 19:22N 34°47' E 139°07'512.2
2017-Oct-12 18:59N 34°51' E 139°10'1311.3
2017-Oct-12 17:50N 34°59' E 139°23'410.4
2017-Oct-12 17:27N 35°00' E 139°27'510.9
2017-Oct-12 17:00N 35°03' E 139°32'611.5
2017-Oct-12 16:30N 35°06' E 139°38'611.2
2017-Oct-12 16:00N 35°09' E 139°44'612.2
2017-Oct-12 15:30N 35°15' E 139°46'612.8
2017-Oct-12 15:00N 35°20' E 139°42'611.7
2017-Oct-12 14:30N 35°26' E 139°45'16 2.2
2017-Oct-12 07:32N 35°32' E 140°03'  

Dump ship's entire track history